createdAt,value
2023-05-09T00:00:35.726Z,19.30
2023-05-09T00:03:02.040Z,19.29
2023-05-09T00:05:28.376Z,19.28
2023-05-09T00:07:57.849Z,19.27
2023-05-09T00:10:24.189Z,19.25
2023-05-09T00:12:51.007Z,19.24
2023-05-09T00:15:17.300Z,19.21
2023-05-09T00:17:43.815Z,19.20
2023-05-09T00:20:10.125Z,19.17
2023-05-09T00:22:36.374Z,19.16
2023-05-09T00:25:02.770Z,19.14
2023-05-09T00:27:29.337Z,19.13
2023-05-09T00:29:55.613Z,19.10
2023-05-09T00:32:21.921Z,19.08
2023-05-09T00:34:48.244Z,19.06
2023-05-09T00:37:14.542Z,19.04
2023-05-09T00:39:41.145Z,19.04
2023-05-09T00:42:07.532Z,19.01
2023-05-09T00:44:33.862Z,19.00
2023-05-09T00:49:59.241Z,18.98
2023-05-09T00:52:25.513Z,18.96
2023-05-09T00:54:51.992Z,18.93
2023-05-09T00:57:18.267Z,18.93
2023-05-09T00:59:44.585Z,18.91
2023-05-09T01:02:10.943Z,18.89
2023-05-09T01:04:37.278Z,18.89
2023-05-09T01:07:03.569Z,18.89
2023-05-09T01:09:30.082Z,18.89
2023-05-09T01:11:56.359Z,18.94
2023-05-09T01:14:22.610Z,18.94
2023-05-09T01:16:48.891Z,18.93
2023-05-09T01:19:15.215Z,18.90
2023-05-09T01:21:41.574Z,18.87
2023-05-09T01:24:07.860Z,18.84
2023-05-09T01:26:34.332Z,18.81
2023-05-09T01:29:00.604Z,18.79
2023-05-09T01:31:27.303Z,18.76
2023-05-09T01:33:53.627Z,18.74
2023-05-09T01:36:19.918Z,18.72
2023-05-09T01:38:46.306Z,18.69
2023-05-09T01:41:13.159Z,18.68
2023-05-09T01:43:39.500Z,18.68
2023-05-09T01:46:05.952Z,18.67
2023-05-09T01:48:32.692Z,18.66
2023-05-09T01:50:59.000Z,18.65
2023-05-09T01:53:25.288Z,18.65
2023-05-09T01:55:51.548Z,18.64
2023-05-09T01:58:17.823Z,18.62
2023-05-09T02:00:44.177Z,18.60
2023-05-09T02:03:10.723Z,18.60
2023-05-09T02:05:37.042Z,18.60
2023-05-09T02:08:03.306Z,18.59
2023-05-09T02:10:29.609Z,18.57
2023-05-09T02:12:56.181Z,18.54
2023-05-09T02:15:22.790Z,18.52
2023-05-09T02:17:51.774Z,18.51
2023-05-09T02:20:18.112Z,18.50
2023-05-09T02:22:44.520Z,18.50
2023-05-09T02:25:10.889Z,18.48
2023-05-09T02:27:37.141Z,18.45
2023-05-09T02:30:03.506Z,18.44
2023-05-09T02:32:29.854Z,18.42
2023-05-09T02:34:56.152Z,18.41
2023-05-09T02:37:22.794Z,18.39
2023-05-09T02:39:49.164Z,18.37
2023-05-09T02:42:15.498Z,18.35
2023-05-09T02:44:41.801Z,18.32
2023-05-09T02:47:08.055Z,18.30
2023-05-09T02:49:34.359Z,18.28
2023-05-09T02:52:01.623Z,18.27
2023-05-09T02:54:28.092Z,18.24
2023-05-09T02:56:54.754Z,18.23
2023-05-09T02:59:21.220Z,18.20
2023-05-09T03:01:47.641Z,18.19
2023-05-09T03:04:13.948Z,18.17
2023-05-09T03:06:40.364Z,18.15
2023-05-09T03:09:06.635Z,18.14
2023-05-09T03:11:32.965Z,18.13
2023-05-09T03:13:59.228Z,18.11
2023-05-09T03:16:25.873Z,18.10
2023-05-09T03:18:52.616Z,18.09
2023-05-09T03:21:18.891Z,18.08
2023-05-09T03:23:45.178Z,18.07
2023-05-09T03:26:11.524Z,18.07
2023-05-09T03:28:37.758Z,18.05
2023-05-09T03:31:04.319Z,18.04
2023-05-09T03:33:30.763Z,18.03
2023-05-09T03:35:57.225Z,18.01
2023-05-09T03:38:23.640Z,18.01
2023-05-09T03:40:52.420Z,18.00
2023-05-09T03:43:18.927Z,17.99
2023-05-09T03:45:45.995Z,17.98
2023-05-09T03:48:12.391Z,17.97
2023-05-09T03:50:38.702Z,17.98
2023-05-09T03:53:05.269Z,17.96
2023-05-09T03:55:31.557Z,17.97
2023-05-09T03:57:57.871Z,17.96
2023-05-09T04:00:24.177Z,17.94
2023-05-09T04:02:50.597Z,17.95
2023-05-09T04:05:17.300Z,17.94
2023-05-09T04:07:44.037Z,17.95
2023-05-09T04:10:10.337Z,17.94
2023-05-09T04:12:36.832Z,17.98
2023-05-09T04:15:03.141Z,18.02
2023-05-09T04:17:29.474Z,18.04
2023-05-09T04:19:55.798Z,18.03
2023-05-09T04:22:22.160Z,17.94
2023-05-09T04:24:48.462Z,18.11
2023-05-09T04:27:14.738Z,18.22
2023-05-09T04:29:41.057Z,18.33
2023-05-09T04:32:07.415Z,18.40
2023-05-09T04:34:33.752Z,18.63
2023-05-09T04:37:00.124Z,18.63
2023-05-09T04:39:26.610Z,18.66
2023-05-09T04:41:52.896Z,18.71
2023-05-09T04:44:19.232Z,18.76
2023-05-09T04:46:45.631Z,18.84
2023-05-09T04:49:12.279Z,18.92
2023-05-09T04:51:38.558Z,19.00
2023-05-09T04:54:04.858Z,19.08
2023-05-09T04:56:31.230Z,19.17
2023-05-09T04:58:57.475Z,19.25
2023-05-09T05:01:24.252Z,19.35
2023-05-09T05:03:50.632Z,19.46
2023-05-09T05:06:16.975Z,19.55
2023-05-09T05:08:43.378Z,19.64
2023-05-09T05:11:09.634Z,19.75
2023-05-09T05:13:36.014Z,19.85
2023-05-09T05:16:02.321Z,19.96
2023-05-09T05:18:28.709Z,20.07
2023-05-09T05:20:55.002Z,20.19
2023-05-09T05:23:21.709Z,20.27
2023-05-09T05:25:48.266Z,20.37
2023-05-09T05:28:14.566Z,20.47
2023-05-09T05:30:40.970Z,20.58
2023-05-09T05:33:07.320Z,20.70
2023-05-09T05:35:33.660Z,20.82
2023-05-09T05:37:59.987Z,20.93
2023-05-09T05:40:26.326Z,21.04
2023-05-09T05:42:52.618Z,21.17
2023-05-09T05:45:18.889Z,21.30
2023-05-09T05:47:45.244Z,21.41
2023-05-09T05:50:12.245Z,21.53
2023-05-09T05:52:38.629Z,21.64
2023-05-09T05:55:05.017Z,21.76
2023-05-09T05:57:31.358Z,21.86
2023-05-09T05:59:57.660Z,21.98
2023-05-09T06:02:24.169Z,22.11
2023-05-09T06:04:51.447Z,22.25
2023-05-09T06:07:18.487Z,22.42
2023-05-09T06:09:44.748Z,22.63
2023-05-09T06:12:11.039Z,22.84
2023-05-09T06:14:37.357Z,23.03
2023-05-09T06:17:03.720Z,23.23
2023-05-09T06:19:30.619Z,23.43
2023-05-09T06:21:56.893Z,23.59
2023-05-09T06:24:34.453Z,23.76
2023-05-09T06:27:01.774Z,23.93
2023-05-09T06:29:28.085Z,24.09
2023-05-09T06:31:54.536Z,24.24
2023-05-09T06:34:20.912Z,24.39
2023-05-09T06:36:47.204Z,24.55
2023-05-09T06:39:13.692Z,24.70
2023-05-09T06:41:39.945Z,24.85
2023-05-09T06:44:06.235Z,24.97
2023-05-09T06:46:32.500Z,25.14
2023-05-09T06:48:58.742Z,25.27
2023-05-09T06:51:25.020Z,25.40
2023-05-09T06:53:51.288Z,25.54
2023-05-09T06:56:19.478Z,25.68
2023-05-09T06:58:46.389Z,25.80
2023-05-09T07:01:15.868Z,25.93
2023-05-09T07:03:42.226Z,26.05
2023-05-09T07:06:08.619Z,26.16
2023-05-09T07:08:38.122Z,26.27
2023-05-09T07:11:04.457Z,26.38
2023-05-09T07:13:30.842Z,26.50
2023-05-09T07:15:57.149Z,26.63
2023-05-09T07:18:23.538Z,26.75
2023-05-09T07:20:49.872Z,26.88
2023-05-09T07:23:16.321Z,27.00
2023-05-09T07:25:42.628Z,27.12
2023-05-09T07:28:09.035Z,27.23
2023-05-09T07:30:35.518Z,27.36
2023-05-09T07:33:02.010Z,27.50
2023-05-09T07:35:28.588Z,27.65
2023-05-09T07:37:54.895Z,27.81
2023-05-09T07:40:21.173Z,27.98
2023-05-09T07:42:47.615Z,28.13
2023-05-09T07:45:14.191Z,28.29
2023-05-09T07:47:40.717Z,28.45
2023-05-09T07:50:06.969Z,28.62
2023-05-09T07:52:33.193Z,28.82
2023-05-09T07:54:59.624Z,29.00
2023-05-09T07:57:25.899Z,29.16
2023-05-09T07:59:52.210Z,29.32
2023-05-09T08:02:18.815Z,29.45
2023-05-09T08:04:45.182Z,29.59
2023-05-09T08:07:11.507Z,29.74
2023-05-09T08:09:37.851Z,29.88
2023-05-09T08:12:04.455Z,30.01
2023-05-09T08:14:30.833Z,30.17
2023-05-09T08:16:58.482Z,30.32
2023-05-09T08:19:25.072Z,30.48
2023-05-09T08:21:55.570Z,30.61
2023-05-09T08:24:21.873Z,30.73
2023-05-09T08:26:48.305Z,30.87
2023-05-09T08:29:14.727Z,30.98
2023-05-09T08:31:41.076Z,31.09
2023-05-09T08:34:10.789Z,31.20
2023-05-09T08:36:38.582Z,31.31
2023-05-09T08:39:12.210Z,31.38
2023-05-09T08:41:41.150Z,31.36
2023-05-09T08:44:17.725Z,30.70
2023-05-09T08:46:47.651Z,30.03
2023-05-09T08:49:14.053Z,29.76
2023-05-09T08:51:41.611Z,29.84
2023-05-09T08:54:08.454Z,29.82
2023-05-09T08:56:36.994Z,29.96
2023-05-09T08:59:03.368Z,29.27
2023-05-09T09:01:38.909Z,28.94
2023-05-09T09:04:05.399Z,28.77
2023-05-09T09:06:31.792Z,28.68
2023-05-09T09:08:58.211Z,28.57
2023-05-09T09:11:24.579Z,28.51
2023-05-09T09:13:51.198Z,28.45
2023-05-09T09:16:18.142Z,28.34
2023-05-09T09:18:46.849Z,28.25
2023-05-09T09:21:13.246Z,28.22
2023-05-09T09:23:45.432Z,28.21
2023-05-09T09:26:11.921Z,28.20
2023-05-09T09:28:38.708Z,28.18
2023-05-09T09:31:05.125Z,28.17
2023-05-09T09:33:32.874Z,28.13
2023-05-09T09:36:01.401Z,28.07
2023-05-09T09:38:29.425Z,28.03
2023-05-09T09:40:56.312Z,28.01
2023-05-09T09:43:26.923Z,27.97
2023-05-09T09:45:53.596Z,27.93
2023-05-09T09:48:20.323Z,27.92
2023-05-09T09:50:46.679Z,27.89
2023-05-09T09:53:13.132Z,27.85
2023-05-09T09:55:43.139Z,27.74
2023-05-09T09:58:10.592Z,27.64
2023-05-09T10:00:37.465Z,27.51
2023-05-09T10:03:03.922Z,27.42
2023-05-09T10:05:31.837Z,27.29
2023-05-09T10:07:58.476Z,27.29
2023-05-09T10:10:24.974Z,27.20
2023-05-09T10:12:54.542Z,27.14
2023-05-09T10:15:22.874Z,27.07
2023-05-09T10:17:49.376Z,27.00
2023-05-09T10:20:16.247Z,26.94
2023-05-09T10:22:45.414Z,26.88
2023-05-09T10:25:14.968Z,26.82
2023-05-09T10:27:44.654Z,26.80
2023-05-09T10:30:16.637Z,26.81
2023-05-09T10:33:01.156Z,26.81
2023-05-09T10:36:10.782Z,26.77
2023-05-09T10:38:37.135Z,26.70
2023-05-09T10:41:03.804Z,26.62
2023-05-09T10:43:32.134Z,26.56
2023-05-09T10:45:58.545Z,26.57
2023-05-09T10:48:27.422Z,26.54
2023-05-09T10:50:53.945Z,26.51
2023-05-09T10:53:20.877Z,26.49
2023-05-09T10:55:47.142Z,26.42
2023-05-09T10:58:13.419Z,26.36
2023-05-09T11:00:57.124Z,26.34
2023-05-09T11:03:37.914Z,26.31
2023-05-09T11:06:11.165Z,26.26
2023-05-09T11:08:37.932Z,26.23
2023-05-09T11:11:08.087Z,26.19
2023-05-09T11:13:37.287Z,26.14
2023-05-09T11:16:08.946Z,26.07
2023-05-09T11:18:41.495Z,26.01
2023-05-09T11:21:08.175Z,26.01
2023-05-09T11:23:37.586Z,26.00
2023-05-09T11:26:04.108Z,25.97
2023-05-09T11:28:34.919Z,25.92
2023-05-09T11:33:51.520Z,25.90
2023-05-09T11:36:25.957Z,25.88
2023-05-09T11:38:52.372Z,25.84
2023-05-09T11:41:18.792Z,25.82
2023-05-09T11:43:45.153Z,25.79
2023-05-09T11:46:11.857Z,25.78
2023-05-09T11:48:38.204Z,25.78
2023-05-09T11:51:06.441Z,25.77
2023-05-09T11:53:32.716Z,25.77
2023-05-09T11:55:59.139Z,25.75
2023-05-09T11:58:28.459Z,25.74
2023-05-09T12:01:02.389Z,25.74
2023-05-09T12:03:31.215Z,25.75
2023-05-09T12:05:57.664Z,25.75
2023-05-09T12:08:25.185Z,25.75
2023-05-09T12:10:57.246Z,25.73
2023-05-09T12:13:26.824Z,25.73
2023-05-09T12:15:53.287Z,25.72
2023-05-09T12:18:24.659Z,25.72
2023-05-09T12:20:51.540Z,25.71
2023-05-09T12:23:17.816Z,25.68
2023-05-09T12:25:47.942Z,25.69
2023-05-09T12:31:03.294Z,25.69
2023-05-09T12:33:32.100Z,25.63
2023-05-09T12:36:04.699Z,25.59
2023-05-09T12:38:30.990Z,25.56
2023-05-09T12:40:57.427Z,25.55
2023-05-09T12:43:26.667Z,25.53
2023-05-09T12:45:56.226Z,25.53
2023-05-09T12:48:28.204Z,25.47
2023-05-09T12:50:54.490Z,25.46
2023-05-09T12:53:22.059Z,25.47
2023-05-09T12:55:54.452Z,25.46
2023-05-09T12:58:24.113Z,25.44
2023-05-09T13:00:50.451Z,25.43
2023-05-09T13:03:16.864Z,25.43
2023-05-09T13:05:43.434Z,25.43
2023-05-09T13:08:15.951Z,25.43
2023-05-09T13:10:44.510Z,25.43
2023-05-09T13:13:10.848Z,25.41
2023-05-09T13:15:37.224Z,25.40
2023-05-09T13:18:09.769Z,25.39
2023-05-09T13:20:36.317Z,25.37
2023-05-09T13:23:02.773Z,25.36
2023-05-09T13:25:29.101Z,25.36
2023-05-09T13:27:55.380Z,25.33
2023-05-09T13:30:22.016Z,25.32
2023-05-09T13:32:48.472Z,25.30
2023-05-09T13:35:14.871Z,25.29
2023-05-09T13:37:41.300Z,25.28
2023-05-09T13:40:07.723Z,25.28
2023-05-09T13:42:34.104Z,25.27
2023-05-09T13:45:00.439Z,25.27
2023-05-09T13:47:26.968Z,25.28
2023-05-09T13:49:56.118Z,25.25
2023-05-09T13:52:22.514Z,25.23
2023-05-09T13:54:52.588Z,25.20
2023-05-09T13:57:33.790Z,25.19
2023-05-09T14:00:00.145Z,25.19
2023-05-09T14:02:26.580Z,25.17
2023-05-09T14:04:52.912Z,25.18
2023-05-09T14:07:19.271Z,25.18
2023-05-09T14:09:45.885Z,25.19
2023-05-09T14:12:14.118Z,25.19
2023-05-09T14:14:42.400Z,25.20
2023-05-09T14:17:08.779Z,25.20
2023-05-09T14:19:35.235Z,25.18
2023-05-09T14:22:01.511Z,25.16
2023-05-09T14:24:27.920Z,25.14
2023-05-09T14:26:57.966Z,25.13
2023-05-09T14:29:24.483Z,25.11
2023-05-09T14:31:51.160Z,25.11
2023-05-09T14:34:21.919Z,25.08
2023-05-09T14:36:48.623Z,25.03
2023-05-09T14:39:16.111Z,24.98
2023-05-09T14:41:44.693Z,24.96
2023-05-09T14:44:11.659Z,24.97
2023-05-09T14:46:38.089Z,25.01
2023-05-09T14:49:06.005Z,25.04
2023-05-09T14:51:32.286Z,25.05
2023-05-09T14:53:58.590Z,25.10
2023-05-09T14:56:27.933Z,25.12
2023-05-09T14:58:54.326Z,25.14
2023-05-09T15:01:20.692Z,25.15
2023-05-09T15:03:47.337Z,25.17
2023-05-09T15:06:15.442Z,25.18
2023-05-09T15:08:41.904Z,25.20
2023-05-09T15:11:08.460Z,25.21
2023-05-09T15:13:34.840Z,25.24
2023-05-09T15:16:01.214Z,25.25
2023-05-09T15:18:27.532Z,25.27
2023-05-09T15:20:53.849Z,25.26
2023-05-09T15:23:20.228Z,25.27
2023-05-09T15:25:46.527Z,25.27
2023-05-09T15:28:12.869Z,25.28
2023-05-09T15:30:39.259Z,25.30
2023-05-09T15:33:05.663Z,25.29
2023-05-09T15:35:32.013Z,25.30
2023-05-09T15:37:58.264Z,25.32
2023-05-09T15:40:24.555Z,25.33
2023-05-09T15:42:50.835Z,25.34
2023-05-09T15:45:17.116Z,25.35
2023-05-09T15:47:43.431Z,25.34
2023-05-09T15:50:10.123Z,25.36
2023-05-09T15:52:36.500Z,25.38
2023-05-09T15:55:02.828Z,25.38
2023-05-09T15:57:29.177Z,25.37
2023-05-09T15:59:55.544Z,25.36
2023-05-09T16:02:22.097Z,25.37
2023-05-09T16:04:48.367Z,25.36
2023-05-09T16:07:14.619Z,25.37
2023-05-09T16:09:40.938Z,25.36
2023-05-09T16:12:07.566Z,25.37
2023-05-09T16:14:34.067Z,25.35
2023-05-09T16:17:00.458Z,25.34
2023-05-09T16:19:26.784Z,25.32
2023-05-09T16:21:53.224Z,25.30
2023-05-09T16:24:19.497Z,25.29
2023-05-09T16:26:46.325Z,25.28
2023-05-09T16:29:12.645Z,25.26
2023-05-09T16:31:39.040Z,25.25
2023-05-09T16:34:05.361Z,25.24
2023-05-09T16:36:31.723Z,25.23
2023-05-09T16:38:58.003Z,25.22
2023-05-09T16:41:24.384Z,25.21
2023-05-09T16:43:50.718Z,25.20
2023-05-09T16:46:17.287Z,25.18
2023-05-09T16:48:43.661Z,25.17
2023-05-09T16:51:09.952Z,25.16
2023-05-09T16:53:36.435Z,25.14
2023-05-09T16:56:02.752Z,25.13
2023-05-09T16:58:29.054Z,25.12
2023-05-09T17:00:55.528Z,25.03
2023-05-09T17:03:22.025Z,25.08
2023-05-09T17:05:48.384Z,25.07
2023-05-09T17:08:14.654Z,25.05
2023-05-09T17:10:42.205Z,25.03
2023-05-09T17:13:08.902Z,25.02
2023-05-09T17:15:35.452Z,25.00
2023-05-09T17:18:02.084Z,24.99
2023-05-09T17:20:28.450Z,24.98
2023-05-09T17:22:54.767Z,24.95
2023-05-09T17:25:21.031Z,24.94
2023-05-09T17:27:47.322Z,24.93
2023-05-09T17:30:13.688Z,24.91
2023-05-09T17:32:40.197Z,24.89
2023-05-09T17:35:06.603Z,24.88
2023-05-09T17:37:33.013Z,24.86
2023-05-09T17:40:02.429Z,24.84
2023-05-09T17:42:28.779Z,24.81
2023-05-09T17:44:55.128Z,24.80
2023-05-09T17:47:21.459Z,24.79
2023-05-09T17:49:47.766Z,24.76
2023-05-09T17:52:14.014Z,24.74
2023-05-09T17:54:40.298Z,24.71
2023-05-09T17:57:06.652Z,24.69
2023-05-09T17:59:32.969Z,24.66
2023-05-09T18:01:59.541Z,24.64
2023-05-09T18:04:25.828Z,24.61
2023-05-09T18:06:52.093Z,24.58
2023-05-09T18:09:18.356Z,24.54
2023-05-09T18:11:44.728Z,24.51
2023-05-09T18:14:11.083Z,24.48
2023-05-09T18:16:37.473Z,24.45
2023-05-09T18:19:03.832Z,24.42
2023-05-09T18:21:30.189Z,24.40
2023-05-09T18:23:56.602Z,24.37
2023-05-09T18:26:22.896Z,24.34
2023-05-09T18:28:49.311Z,24.30
2023-05-09T18:31:15.621Z,24.27
2023-05-09T18:33:42.018Z,24.24
2023-05-09T18:36:08.404Z,24.22
2023-05-09T18:38:34.896Z,24.20
2023-05-09T18:41:01.319Z,24.16
2023-05-09T18:43:27.653Z,24.14
2023-05-09T18:45:56.997Z,24.11
2023-05-09T18:48:23.295Z,24.08
2023-05-09T18:50:49.568Z,24.04
2023-05-09T18:53:16.263Z,24.00
2023-05-09T18:55:42.553Z,23.97
2023-05-09T18:58:09.018Z,23.96
2023-05-09T19:00:35.315Z,23.92
2023-05-09T19:03:01.764Z,23.89
2023-05-09T19:05:28.043Z,23.86
2023-05-09T19:07:54.378Z,23.84
2023-05-09T19:10:20.779Z,23.81
2023-05-09T19:12:47.196Z,23.77
2023-05-09T19:15:13.786Z,23.74
2023-05-09T19:17:40.290Z,23.72
2023-05-09T19:20:06.670Z,23.69
2023-05-09T19:22:32.924Z,23.66
2023-05-09T19:24:59.231Z,23.63
2023-05-09T19:27:28.729Z,23.62
2023-05-09T19:29:55.079Z,23.59
2023-05-09T19:32:21.494Z,23.57
2023-05-09T19:34:47.800Z,23.55
2023-05-09T19:37:14.361Z,23.52
2023-05-09T19:39:40.637Z,23.50
2023-05-09T19:42:06.938Z,23.49
2023-05-09T19:44:33.562Z,23.47
2023-05-09T19:46:59.959Z,23.45
2023-05-09T19:49:26.376Z,23.41
2023-05-09T19:51:55.540Z,23.40
2023-05-09T19:54:21.959Z,23.38
2023-05-09T19:56:48.413Z,23.35
2023-05-09T19:59:14.680Z,23.33
2023-05-09T20:01:40.978Z,23.32
2023-05-09T20:04:07.540Z,23.30
2023-05-09T20:06:33.997Z,23.28
2023-05-09T20:09:00.307Z,23.27
2023-05-09T20:11:26.684Z,23.25
2023-05-09T20:13:53.098Z,23.23
2023-05-09T20:16:19.381Z,23.21
2023-05-09T20:18:45.883Z,23.18
2023-05-09T20:21:12.205Z,23.15
2023-05-09T20:23:38.499Z,23.10
2023-05-09T20:26:04.753Z,23.04
2023-05-09T20:28:31.050Z,22.99
2023-05-09T20:30:57.391Z,22.91
2023-05-09T20:36:08.923Z,22.79
2023-05-09T20:38:35.240Z,22.73
2023-05-09T20:41:01.628Z,22.69
2023-05-09T20:43:27.903Z,22.64
2023-05-09T20:45:54.208Z,22.58
2023-05-09T20:48:20.496Z,22.54
2023-05-09T20:50:46.752Z,22.49
2023-05-09T20:53:13.147Z,22.45
2023-05-09T20:55:39.570Z,22.39
2023-05-09T20:58:05.865Z,22.35
2023-05-09T21:00:32.117Z,22.30
2023-05-09T21:02:58.939Z,22.25
2023-05-09T21:05:25.242Z,22.20
2023-05-09T21:07:51.592Z,22.16
2023-05-09T21:10:18.160Z,22.13
2023-05-09T21:12:44.529Z,22.09
2023-05-09T21:15:10.890Z,22.03
2023-05-09T21:17:37.256Z,22.00
2023-05-09T21:20:03.632Z,21.95
2023-05-09T21:22:29.881Z,21.92
2023-05-09T21:24:56.377Z,21.89
2023-05-09T21:27:22.688Z,21.85
2023-05-09T21:29:48.977Z,21.82
2023-05-09T21:32:15.214Z,21.78
2023-05-09T21:34:41.918Z,21.74
2023-05-09T21:37:10.280Z,21.68
2023-05-09T21:39:36.541Z,21.65
2023-05-09T21:42:02.870Z,21.61
2023-05-09T21:44:29.265Z,21.57
2023-05-09T21:46:55.546Z,21.54
2023-05-09T21:49:21.869Z,21.48
2023-05-09T21:51:48.160Z,21.40
2023-05-09T21:54:14.458Z,21.31
2023-05-09T21:56:40.732Z,21.25
2023-05-09T21:59:06.998Z,21.19
2023-05-09T22:01:33.366Z,21.14
2023-05-09T22:03:59.926Z,21.08
2023-05-09T22:06:26.408Z,21.03
2023-05-09T22:08:52.724Z,20.98
2023-05-09T22:11:19.124Z,20.93
2023-05-09T22:13:45.432Z,20.88
2023-05-09T22:16:11.821Z,20.83
2023-05-09T22:18:38.127Z,20.77
2023-05-09T22:21:04.386Z,20.70
2023-05-09T22:23:30.964Z,20.63
2023-05-09T22:25:57.297Z,20.58
2023-05-09T22:28:23.951Z,20.52
2023-05-09T22:30:50.235Z,20.48
2023-05-09T22:33:16.894Z,20.43
2023-05-09T22:35:43.488Z,20.39
2023-05-09T22:38:09.802Z,20.33
2023-05-09T22:40:36.199Z,20.30
2023-05-09T22:43:02.537Z,20.28
2023-05-09T22:45:28.828Z,20.27
2023-05-09T22:47:55.135Z,20.26
2023-05-09T22:50:21.507Z,20.23
2023-05-09T22:52:47.818Z,20.22
2023-05-09T22:55:14.150Z,20.20
2023-05-09T22:57:40.612Z,20.17
2023-05-09T23:00:06.867Z,20.14
2023-05-09T23:02:33.505Z,20.11
2023-05-09T23:04:59.983Z,20.07
2023-05-09T23:07:26.336Z,20.03
2023-05-09T23:09:52.660Z,20.00
2023-05-09T23:12:18.965Z,19.96
2023-05-09T23:14:45.311Z,19.93
2023-05-09T23:17:11.977Z,19.87
2023-05-09T23:19:38.302Z,19.81
2023-05-09T23:22:04.624Z,19.76
2023-05-09T23:24:31.070Z,19.71
2023-05-09T23:26:57.413Z,19.67
2023-05-09T23:29:23.866Z,19.61
2023-05-09T23:31:50.227Z,19.58
2023-05-09T23:34:16.579Z,19.57
2023-05-09T23:36:43.107Z,19.54
2023-05-09T23:39:09.414Z,19.51
2023-05-09T23:41:35.703Z,19.49
2023-05-09T23:44:02.127Z,19.49
2023-05-09T23:46:28.491Z,19.47
2023-05-09T23:48:54.825Z,19.46
2023-05-09T23:51:21.128Z,19.43
2023-05-09T23:53:47.604Z,19.39
2023-05-09T23:56:13.934Z,19.36
2023-05-09T23:58:40.248Z,19.34
